Terminal Aerodrome Forecast
Issued by NWS

Home | Current Version | Previous Version | Text Only | Print | Product List | Glossary On
Versions: 1 2 3 4 5 6 7 8 9 10 11 12 13 14
000
FTUS46 KSEW 291755
TAFBLI
TAF
KBLI 291755Z 2918/3018 14025G35KT P6SM SCT060
     FM292000 18020G30KT P6SM -RA BKN025 OVC040
     FM292300 18020G30KT P6SM -SHRA SCT030 BKN040 OVC050
     FM300300 18014KT P6SM -RA BKN028 OVC040
     FM300900 16008KT P6SM VCSH SCT030 OVC050=

USA.gov is the U.S. government's official web portal to all federal, state and local government web resources and services.